createdAt,value
2022-08-17T00:00:43.402Z,17.40
2022-08-17T00:03:17.185Z,16.40
2022-08-17T00:05:50.970Z,16.80
2022-08-17T00:08:24.130Z,17.40
2022-08-17T00:10:54.390Z,17.10
2022-08-17T00:13:26.545Z,17.50
2022-08-17T00:16:02.039Z,16.90
2022-08-17T00:19:06.483Z,16.80
2022-08-17T00:21:23.760Z,16.90
2022-08-17T00:23:52.320Z,18.30
2022-08-17T00:26:43.503Z,18.00
2022-08-17T00:29:09.855Z,17.50
2022-08-17T00:31:49.253Z,17.00
2022-08-17T00:34:17.873Z,17.70
2022-08-17T00:36:46.356Z,17.70
2022-08-17T00:39:14.546Z,18.30
2022-08-17T00:41:42.940Z,18.30
2022-08-17T00:44:12.574Z,18.40
2022-08-17T00:46:44.958Z,18.00
2022-08-17T00:49:14.974Z,18.80
2022-08-17T00:51:48.790Z,17.20
2022-08-17T00:54:31.726Z,17.80
2022-08-17T00:57:10.146Z,18.00
2022-08-17T00:59:44.570Z,17.90
2022-08-17T01:02:15.848Z,18.70
2022-08-17T01:04:47.246Z,17.60
2022-08-17T01:07:17.325Z,18.10
2022-08-17T01:09:45.351Z,18.60
2022-08-17T01:12:13.720Z,19.50
2022-08-17T01:14:42.406Z,20.10
2022-08-17T01:17:10.886Z,19.00
2022-08-17T01:19:42.425Z,19.60
2022-08-17T01:22:15.059Z,19.20
2022-08-17T01:24:48.108Z,18.70
2022-08-17T01:27:18.615Z,18.50
2022-08-17T01:29:54.179Z,19.50
2022-08-17T01:32:22.142Z,19.30
2022-08-17T01:34:50.976Z,19.80
2022-08-17T01:37:21.816Z,19.10
2022-08-17T01:39:55.393Z,18.40
2022-08-17T01:42:49.331Z,18.50
2022-08-17T01:45:30.638Z,17.60
2022-08-17T01:47:58.720Z,19.70
2022-08-17T01:50:32.442Z,20.00
2022-08-17T01:53:04.630Z,19.70
2022-08-17T01:55:41.253Z,18.90
2022-08-17T01:58:10.438Z,19.10
2022-08-17T02:00:58.189Z,18.80
2022-08-17T02:03:34.705Z,19.90
2022-08-17T02:06:05.178Z,18.80
2022-08-17T02:08:38.969Z,18.00
2022-08-17T02:11:14.836Z,18.50
2022-08-17T02:13:45.058Z,18.70
2022-08-17T02:16:13.885Z,18.90
2022-08-17T02:18:42.528Z,18.60
2022-08-17T02:21:11.216Z,19.60
2022-08-17T02:23:47.992Z,18.90
2022-08-17T02:26:26.102Z,19.20
2022-08-17T02:28:55.155Z,17.50
2022-08-17T02:31:23.233Z,17.90
2022-08-17T02:34:00.481Z,18.00
2022-08-17T02:36:35.097Z,18.00
2022-08-17T02:39:06.005Z,18.10
2022-08-17T02:41:34.549Z,18.00
2022-08-17T02:44:02.933Z,17.50
2022-08-17T02:46:31.715Z,17.80
2022-08-17T02:49:00.507Z,19.70
2022-08-17T02:51:28.691Z,19.20
2022-08-17T02:54:35.840Z,18.60
2022-08-17T02:56:45.196Z,18.80
2022-08-17T02:59:13.503Z,20.00
2022-08-17T03:01:41.808Z,22.00
2022-08-17T03:04:09.941Z,20.80
2022-08-17T03:06:38.095Z,20.30
2022-08-17T03:09:06.369Z,21.00
2022-08-17T03:11:35.258Z,20.20
2022-08-17T03:14:03.231Z,20.50
2022-08-17T03:16:31.149Z,19.80
2022-08-17T03:18:59.482Z,20.10
2022-08-17T03:21:27.546Z,20.10
2022-08-17T03:23:55.622Z,19.70
2022-08-17T03:26:23.603Z,19.00
2022-08-17T03:28:57.813Z,18.60
2022-08-17T03:31:25.870Z,19.30
2022-08-17T03:33:54.054Z,18.90
2022-08-17T03:36:22.379Z,18.70
2022-08-17T03:38:50.401Z,19.70
2022-08-17T03:41:20.316Z,18.60
2022-08-17T03:43:48.271Z,19.10
2022-08-17T03:46:35.682Z,18.70
2022-08-17T03:49:27.172Z,18.50
2022-08-17T03:52:15.255Z,19.20
2022-08-17T03:55:04.023Z,18.20
2022-08-17T03:57:32.579Z,19.00
2022-08-17T04:00:00.775Z,19.50
2022-08-17T04:02:32.537Z,19.40
2022-08-17T04:05:01.315Z,18.80
2022-08-17T04:07:31.646Z,18.90
2022-08-17T04:10:00.390Z,18.30
2022-08-17T04:12:42.853Z,18.40
2022-08-17T04:18:07.351Z,17.50
2022-08-17T04:20:35.495Z,17.80
2022-08-17T04:23:11.624Z,17.70
2022-08-17T04:25:43.148Z,17.70
2022-08-17T04:28:15.556Z,18.10
2022-08-17T04:35:47.169Z,16.20
2022-08-17T04:38:27.355Z,17.10
2022-08-17T04:41:15.298Z,17.00
2022-08-17T04:43:45.564Z,16.90
2022-08-17T04:46:19.629Z,17.00
2022-08-17T04:48:50.990Z,16.60
2022-08-17T04:51:40.356Z,16.30
2022-08-17T04:54:21.158Z,16.40
2022-08-17T04:56:49.326Z,16.10
2022-08-17T04:59:21.430Z,16.20
2022-08-17T05:01:51.560Z,15.20
2022-08-17T05:04:34.474Z,15.40
2022-08-17T05:07:04.814Z,14.90
2022-08-17T05:09:32.955Z,14.90
2022-08-17T05:12:02.561Z,13.90
2022-08-17T05:14:32.930Z,13.30
2022-08-17T05:17:07.198Z,13.10
2022-08-17T05:19:37.595Z,12.20
2022-08-17T05:22:06.375Z,13.10
2022-08-17T05:24:42.756Z,13.20
2022-08-17T05:27:23.510Z,12.90
2022-08-17T05:29:52.371Z,13.00
2022-08-17T05:32:39.248Z,13.30
2022-08-17T05:35:11.137Z,15.20
2022-08-17T05:37:39.570Z,13.80
2022-08-17T05:40:08.310Z,12.80
2022-08-17T05:42:36.545Z,13.20
2022-08-17T05:45:05.751Z,13.00
2022-08-17T05:47:33.916Z,12.20
2022-08-17T05:50:02.706Z,12.00
2022-08-17T05:53:11.576Z,11.00
2022-08-17T05:55:59.331Z,11.60
2022-08-17T05:58:55.575Z,10.80
2022-08-17T06:01:35.357Z,10.30
2022-08-17T06:04:19.939Z,10.50
2022-08-17T06:07:05.459Z,9.60
2022-08-17T06:09:36.474Z,9.40
2022-08-17T06:12:59.747Z,9.50
2022-08-17T06:15:36.576Z,9.60
2022-08-17T06:18:08.425Z,8.90
2022-08-17T06:20:47.652Z,9.00
2022-08-17T06:23:41.266Z,8.00
2022-08-17T06:26:16.589Z,7.60
2022-08-17T06:28:51.888Z,7.70
2022-08-17T06:31:51.752Z,8.40
2022-08-17T06:34:21.091Z,7.80
2022-08-17T06:36:54.158Z,7.50
2022-08-17T06:39:46.134Z,7.40
2022-08-17T06:43:02.569Z,7.20
2022-08-17T06:45:34.616Z,7.00
2022-08-17T06:48:13.051Z,8.00
2022-08-17T06:50:55.416Z,8.20
2022-08-17T06:53:41.252Z,6.80
2022-08-17T06:56:11.741Z,7.20
2022-08-17T06:58:43.566Z,7.90
2022-08-17T07:01:19.492Z,8.00
2022-08-17T07:04:06.734Z,7.60
2022-08-17T07:06:50.899Z,7.90
2022-08-17T07:09:38.237Z,7.80
2022-08-17T07:12:16.128Z,7.50
2022-08-17T07:14:54.612Z,7.40
2022-08-17T07:17:46.636Z,7.10
2022-08-17T07:20:18.129Z,7.10
2022-08-17T07:23:04.500Z,6.40
2022-08-17T07:25:33.316Z,7.20
2022-08-17T07:28:07.065Z,7.20
2022-08-17T07:30:49.493Z,6.40
2022-08-17T07:33:33.301Z,7.50
2022-08-17T07:36:01.966Z,6.70
2022-08-17T07:38:35.612Z,6.20
2022-08-17T07:41:07.572Z,6.00
2022-08-17T07:43:41.581Z,6.40
2022-08-17T07:46:53.871Z,6.60
2022-08-17T07:49:32.536Z,7.20
2022-08-17T07:52:48.128Z,6.60
2022-08-17T07:54:58.845Z,6.20
2022-08-17T07:57:35.819Z,6.20
2022-08-17T08:00:16.868Z,7.00
2022-08-17T08:02:58.830Z,6.20
2022-08-17T08:05:49.309Z,5.40
2022-08-17T08:08:26.981Z,5.80
2022-08-17T08:11:02.227Z,5.90
2022-08-17T08:13:32.507Z,5.60
2022-08-17T08:16:21.186Z,5.30
2022-08-17T08:18:55.302Z,5.70
2022-08-17T08:21:31.175Z,5.30
2022-08-17T08:24:19.746Z,5.40
2022-08-17T08:27:10.703Z,5.50
2022-08-17T08:30:06.786Z,5.80
2022-08-17T08:32:57.902Z,4.70
2022-08-17T08:35:31.642Z,5.30
2022-08-17T08:38:20.346Z,4.80
2022-08-17T08:41:19.458Z,5.40
2022-08-17T08:44:01.000Z,5.30
2022-08-17T08:46:50.817Z,5.20
2022-08-17T08:49:45.072Z,5.20
2022-08-17T08:52:34.329Z,5.10
2022-08-17T08:55:34.716Z,5.30
2022-08-17T08:58:08.630Z,5.50
2022-08-17T09:00:58.747Z,5.40
2022-08-17T09:03:51.664Z,5.50
2022-08-17T09:06:58.170Z,5.90
2022-08-17T09:09:40.841Z,9.20
2022-08-17T09:12:25.691Z,5.50
2022-08-17T09:15:17.908Z,5.70
2022-08-17T09:19:01.131Z,5.30
2022-08-17T09:20:55.966Z,5.20
2022-08-17T09:23:49.820Z,6.00
2022-08-17T09:26:25.596Z,6.00
2022-08-17T09:29:01.831Z,6.00
2022-08-17T09:31:47.080Z,5.80
2022-08-17T09:34:29.555Z,5.70
2022-08-17T09:37:20.799Z,5.00
2022-08-17T09:39:48.745Z,4.90
2022-08-17T09:42:50.042Z,5.40
2022-08-17T09:45:41.083Z,5.60
2022-08-17T09:48:12.948Z,5.00
2022-08-17T09:51:04.882Z,5.20
2022-08-17T09:53:38.788Z,5.80
2022-08-17T09:56:28.527Z,5.70
2022-08-17T09:59:08.786Z,5.60
2022-08-17T10:02:05.011Z,5.60
2022-08-17T10:04:51.826Z,5.60
2022-08-17T10:07:47.758Z,5.70
2022-08-17T10:10:30.067Z,5.20
2022-08-17T10:13:26.149Z,5.70
2022-08-17T10:16:02.129Z,5.50
2022-08-17T10:18:44.915Z,5.40
2022-08-17T10:21:35.685Z,5.40
2022-08-17T10:24:28.494Z,5.30
2022-08-17T10:27:00.636Z,5.50
2022-08-17T10:29:49.169Z,5.40
2022-08-17T10:32:32.519Z,5.10
2022-08-17T10:35:07.270Z,5.40
2022-08-17T10:37:54.207Z,5.20
2022-08-17T10:40:48.435Z,5.60
2022-08-17T10:43:57.829Z,5.80
2022-08-17T10:46:52.391Z,5.60
2022-08-17T10:49:23.149Z,5.70
2022-08-17T10:52:12.711Z,5.80
2022-08-17T10:54:47.499Z,5.90
2022-08-17T10:57:31.945Z,5.70
2022-08-17T11:00:02.362Z,5.00
2022-08-17T11:02:51.358Z,4.90
2022-08-17T11:05:29.149Z,5.30
2022-08-17T11:08:46.374Z,4.90
2022-08-17T11:11:40.027Z,5.00
2022-08-17T11:14:17.511Z,4.80
2022-08-17T11:17:11.651Z,4.80
2022-08-17T11:19:39.711Z,5.00
2022-08-17T11:22:32.762Z,5.00
2022-08-17T11:25:31.158Z,4.10
2022-08-17T11:28:26.076Z,4.40
2022-08-17T11:31:10.226Z,4.30
2022-08-17T11:33:45.215Z,4.40
2022-08-17T11:36:29.662Z,4.40
2022-08-17T11:39:15.306Z,4.50
2022-08-17T11:42:20.909Z,4.30
2022-08-17T11:45:08.748Z,4.90
2022-08-17T11:48:27.735Z,4.40
2022-08-17T11:51:46.156Z,4.50
2022-08-17T11:54:32.112Z,4.70
2022-08-17T11:57:25.715Z,4.50
2022-08-17T12:00:00.664Z,5.00
2022-08-17T12:02:31.514Z,5.00
2022-08-17T12:05:14.867Z,5.00
2022-08-17T12:07:52.722Z,4.90
2022-08-17T12:10:32.018Z,5.00
2022-08-17T12:13:07.075Z,5.20
2022-08-17T12:15:40.979Z,5.30
2022-08-17T12:18:18.342Z,5.50
2022-08-17T12:20:56.561Z,5.30
2022-08-17T12:23:29.499Z,5.20
2022-08-17T12:25:59.884Z,5.40
2022-08-17T12:28:34.335Z,5.30
2022-08-17T12:31:31.798Z,5.40
2022-08-17T12:34:00.626Z,5.40
2022-08-17T12:36:29.328Z,5.50
2022-08-17T12:39:14.181Z,5.50
2022-08-17T12:41:52.721Z,5.30
2022-08-17T12:44:22.325Z,5.60
2022-08-17T12:47:21.886Z,6.10
2022-08-17T12:49:52.940Z,5.50
2022-08-17T12:52:33.018Z,5.80
2022-08-17T12:55:05.768Z,5.70
2022-08-17T12:57:41.523Z,5.70
2022-08-17T13:00:17.860Z,5.70
2022-08-17T13:02:58.346Z,5.50
2022-08-17T13:05:29.267Z,6.50
2022-08-17T13:07:59.678Z,6.40
2022-08-17T13:10:33.077Z,5.90
2022-08-17T13:13:06.125Z,5.10
2022-08-17T13:15:44.902Z,4.90
2022-08-17T13:18:48.942Z,5.10
2022-08-17T13:21:30.678Z,4.60
2022-08-17T13:24:10.776Z,4.70
2022-08-17T13:26:44.291Z,5.20
2022-08-17T13:29:37.288Z,5.50
2022-08-17T13:32:13.042Z,5.00
2022-08-17T13:35:12.622Z,5.20
2022-08-17T13:37:35.821Z,5.20
2022-08-17T13:40:09.757Z,5.30
2022-08-17T13:42:53.004Z,5.20
2022-08-17T13:45:40.275Z,5.40
2022-08-17T13:48:13.840Z,5.10
2022-08-17T13:50:43.767Z,5.90
2022-08-17T13:53:50.742Z,5.30
2022-08-17T13:56:45.176Z,6.30
2022-08-17T13:59:36.022Z,6.10
2022-08-17T14:02:18.768Z,6.00
2022-08-17T14:04:48.180Z,5.90
2022-08-17T14:07:18.460Z,5.60
2022-08-17T14:09:54.703Z,5.90
2022-08-17T14:12:27.488Z,5.30
2022-08-17T14:14:56.691Z,5.30
2022-08-17T14:17:29.176Z,5.80
2022-08-17T14:19:58.628Z,5.90
2022-08-17T14:22:35.145Z,5.50
2022-08-17T14:25:04.790Z,5.50
2022-08-17T14:27:52.373Z,5.20
2022-08-17T14:30:25.138Z,5.10
2022-08-17T14:32:54.331Z,5.30
2022-08-17T14:35:24.048Z,5.10
2022-08-17T14:37:53.008Z,5.20
2022-08-17T14:40:25.086Z,5.60
2022-08-17T14:42:55.441Z,5.00
2022-08-17T14:45:30.154Z,5.10
2022-08-17T14:48:07.941Z,5.10
2022-08-17T14:50:38.917Z,5.10
2022-08-17T14:53:10.123Z,5.20
2022-08-17T14:55:40.741Z,4.70
2022-08-17T14:58:09.501Z,4.90
2022-08-17T15:00:39.696Z,5.30
2022-08-17T15:03:07.788Z,5.60
2022-08-17T15:05:38.042Z,5.20
2022-08-17T15:08:07.327Z,4.90
2022-08-17T15:10:36.484Z,5.80
2022-08-17T15:13:23.521Z,5.50
2022-08-17T15:15:52.133Z,5.50
2022-08-17T15:18:20.457Z,5.30
2022-08-17T15:20:50.304Z,5.30
2022-08-17T15:23:22.035Z,5.50
2022-08-17T15:25:52.712Z,5.20
2022-08-17T15:28:25.373Z,5.10
2022-08-17T15:30:54.177Z,5.00
2022-08-17T15:33:29.663Z,5.50
2022-08-17T15:36:03.336Z,5.40
2022-08-17T15:38:34.360Z,5.40
2022-08-17T15:41:03.006Z,5.70
2022-08-17T15:43:33.005Z,5.80
2022-08-17T15:46:12.748Z,6.00
2022-08-17T15:48:42.701Z,6.00
2022-08-17T15:51:21.345Z,6.40
2022-08-17T15:53:58.771Z,5.90
2022-08-17T15:56:29.400Z,6.40
2022-08-17T15:58:58.695Z,6.30
2022-08-17T16:02:15.425Z,6.30
2022-08-17T16:04:30.528Z,6.30
2022-08-17T16:07:00.380Z,6.60
2022-08-17T16:09:29.076Z,6.60
2022-08-17T16:11:57.599Z,6.70
2022-08-17T16:14:32.516Z,6.60
2022-08-17T16:17:05.676Z,6.60
2022-08-17T16:19:54.264Z,7.10
2022-08-17T16:22:33.361Z,6.80
2022-08-17T16:25:06.617Z,6.90
2022-08-17T16:27:35.099Z,6.60
2022-08-17T16:30:06.300Z,7.30
2022-08-17T16:32:34.663Z,7.20
2022-08-17T16:35:06.169Z,7.50
2022-08-17T16:37:35.064Z,7.40
2022-08-17T16:40:07.998Z,7.40
2022-08-17T16:42:38.676Z,7.50
2022-08-17T16:45:17.336Z,7.40
2022-08-17T16:47:46.477Z,7.90
2022-08-17T16:50:18.045Z,8.00
2022-08-17T16:52:50.393Z,8.20
2022-08-17T16:55:21.493Z,8.60
2022-08-17T16:57:50.337Z,8.20
2022-08-17T17:00:19.587Z,7.80
2022-08-17T17:02:49.882Z,8.40
2022-08-17T17:05:43.676Z,8.80
2022-08-17T17:08:25.756Z,8.60
2022-08-17T17:10:56.725Z,9.20
2022-08-17T17:13:44.309Z,9.10
2022-08-17T17:16:12.380Z,9.00
2022-08-17T17:19:03.406Z,9.10
2022-08-17T17:21:42.804Z,9.30
2022-08-17T17:24:17.086Z,9.20
2022-08-17T17:27:11.890Z,9.20
2022-08-17T17:29:56.096Z,8.90
2022-08-17T17:32:43.051Z,9.10
2022-08-17T17:35:47.922Z,9.60
2022-08-17T17:38:22.271Z,9.40
2022-08-17T17:40:55.134Z,9.60
2022-08-17T17:43:39.751Z,9.70
2022-08-17T17:46:27.700Z,9.60
2022-08-17T17:48:58.181Z,9.60
2022-08-17T17:52:10.213Z,9.90
2022-08-17T17:55:03.619Z,10.60
2022-08-17T17:57:47.662Z,9.90
2022-08-17T18:00:23.669Z,10.10
2022-08-17T18:03:01.009Z,10.00
2022-08-17T18:06:01.164Z,10.70
2022-08-17T18:08:53.069Z,10.40
2022-08-17T18:11:25.113Z,10.00
2022-08-17T18:14:20.796Z,11.10
2022-08-17T18:16:55.503Z,10.30
2022-08-17T18:19:26.136Z,11.60
2022-08-17T18:22:21.479Z,10.80
2022-08-17T18:24:56.247Z,10.70
2022-08-17T18:27:24.405Z,10.70
2022-08-17T18:29:58.116Z,11.50
2022-08-17T18:32:37.803Z,10.70
2022-08-17T18:35:11.866Z,11.10
2022-08-17T18:37:54.123Z,11.00
2022-08-17T18:40:30.851Z,11.90
2022-08-17T18:43:08.849Z,11.30
2022-08-17T18:45:48.492Z,11.10
2022-08-17T18:48:38.517Z,11.30
2022-08-17T18:51:48.947Z,11.30
2022-08-17T18:54:25.817Z,11.50
2022-08-17T18:56:57.363Z,12.60
2022-08-17T18:59:50.323Z,12.70
2022-08-17T19:02:38.671Z,11.60
2022-08-17T19:05:30.093Z,12.00
2022-08-17T19:08:29.785Z,11.70
2022-08-17T19:11:09.658Z,12.60
2022-08-17T19:13:44.272Z,11.60
2022-08-17T19:16:46.547Z,12.20
2022-08-17T19:19:45.419Z,12.60
2022-08-17T19:22:40.738Z,13.10
2022-08-17T19:25:18.158Z,12.70
2022-08-17T19:27:58.146Z,12.60
2022-08-17T19:30:26.992Z,12.90
2022-08-17T19:33:01.802Z,12.70
2022-08-17T19:36:07.758Z,13.50
2022-08-17T19:39:06.175Z,13.60
2022-08-17T19:42:05.132Z,12.90
2022-08-17T19:45:12.628Z,14.50
2022-08-17T19:47:55.206Z,14.40
2022-08-17T19:50:43.178Z,15.20
2022-08-17T19:54:07.131Z,14.60
2022-08-17T19:56:44.225Z,15.10
2022-08-17T19:59:23.507Z,17.00
2022-08-17T20:01:54.789Z,14.70
2022-08-17T20:04:32.389Z,14.60
2022-08-17T20:07:06.908Z,15.40
2022-08-17T20:09:39.338Z,16.50
2022-08-17T20:12:26.916Z,15.20
2022-08-17T20:15:04.008Z,16.20
2022-08-17T20:17:40.766Z,15.00
2022-08-17T20:20:43.722Z,14.10
2022-08-17T20:23:23.725Z,14.70
2022-08-17T20:26:05.922Z,15.20
2022-08-17T20:28:39.326Z,15.40
2022-08-17T20:31:42.038Z,14.60
2022-08-17T20:34:36.869Z,15.50
2022-08-17T20:37:29.135Z,15.50
2022-08-17T20:39:57.462Z,15.40
2022-08-17T20:42:26.299Z,15.20
2022-08-17T20:45:21.757Z,15.10
2022-08-17T20:50:52.946Z,15.60
2022-08-17T20:53:56.172Z,17.50
2022-08-17T20:56:48.396Z,16.40
2022-08-17T20:59:30.674Z,16.40
2022-08-17T21:02:17.698Z,16.80
2022-08-17T21:04:50.195Z,16.70
2022-08-17T21:07:29.585Z,17.40
2022-08-17T21:10:16.145Z,18.40
2022-08-17T21:12:50.056Z,17.50
2022-08-17T21:15:43.744Z,16.70
2022-08-17T21:18:39.029Z,15.70
2022-08-17T21:21:33.001Z,16.30
2022-08-17T21:24:26.070Z,16.50
2022-08-17T21:26:55.635Z,16.60
2022-08-17T21:29:31.104Z,16.90
2022-08-17T21:32:05.401Z,16.60
2022-08-17T21:34:40.561Z,16.50
2022-08-17T21:37:23.707Z,17.10
2022-08-17T21:39:56.521Z,16.10
2022-08-17T21:42:32.190Z,16.70
2022-08-17T21:45:10.946Z,17.00
2022-08-17T21:47:45.375Z,16.30
2022-08-17T21:50:19.535Z,16.50
2022-08-17T21:52:50.150Z,16.30
2022-08-17T21:55:24.725Z,16.70
2022-08-17T21:58:12.184Z,16.60
2022-08-17T22:00:44.845Z,16.70
2022-08-17T22:03:26.476Z,16.50
2022-08-17T22:05:54.589Z,16.60
2022-08-17T22:08:25.997Z,16.80
2022-08-17T22:11:01.705Z,16.60
2022-08-17T22:13:30.139Z,17.50
2022-08-17T22:16:15.171Z,16.30
2022-08-17T22:18:53.872Z,15.60
2022-08-17T22:21:22.612Z,16.50
2022-08-17T22:24:06.195Z,16.70
2022-08-17T22:27:02.733Z,16.70
2022-08-17T22:30:00.493Z,17.40
2022-08-17T22:32:37.778Z,16.90
2022-08-17T22:35:26.941Z,17.70
2022-08-17T22:37:57.459Z,16.70
2022-08-17T22:40:30.768Z,17.00
2022-08-17T22:43:03.686Z,18.00
2022-08-17T22:45:33.766Z,16.50
2022-08-17T22:48:02.383Z,17.60
2022-08-17T22:50:33.388Z,16.70
2022-08-17T22:53:30.849Z,17.00
2022-08-17T22:56:17.988Z,17.30
2022-08-17T22:59:12.465Z,16.80
2022-08-17T23:01:42.607Z,17.50
2022-08-17T23:04:29.795Z,17.60
2022-08-17T23:06:58.081Z,17.70
2022-08-17T23:09:26.245Z,17.50
2022-08-17T23:11:59.023Z,17.70
2022-08-17T23:14:32.485Z,16.70
2022-08-17T23:17:02.007Z,17.60
2022-08-17T23:19:33.061Z,17.60
2022-08-17T23:22:04.586Z,17.70
2022-08-17T23:24:39.607Z,17.80
2022-08-17T23:27:08.443Z,18.10
2022-08-17T23:29:41.840Z,17.80
2022-08-17T23:32:14.947Z,18.20
2022-08-17T23:34:45.119Z,18.00
2022-08-17T23:37:13.265Z,17.30
2022-08-17T23:39:45.256Z,17.60
2022-08-17T23:42:24.827Z,18.10
2022-08-17T23:44:53.192Z,17.20
2022-08-17T23:47:21.647Z,17.80
2022-08-17T23:49:49.753Z,17.50
2022-08-17T23:52:23.042Z,18.00
2022-08-17T23:54:51.210Z,17.40
2022-08-17T23:57:33.857Z,18.30
